Time;durP1;ratioP1;P1;durP2;ratioP2;P2;SDS_P1;SDS_P2;PMS_P1;PMS_P2;Temp;Humidity;BMP_temperature;BMP_pressure;BME280_temperature;BME280_humidity;BME280_pressure;Samples;Min_cycle;Max_cycle;Signal;HPM_P1;HPM_P2
2022/09/12 00:00:40;;;;;;;5.70;2.58;;;14.20;99.90;;;;;;5003127;28;20029;-82
2022/09/12 00:03:06;;;;;;;5.35;2.55;;;14.10;99.90;;;;;;4999360;28;20398;-81
2022/09/12 00:05:32;;;;;;;4.95;2.65;;;14.20;99.90;;;;;;5002477;28;20080;-81
2022/09/12 00:07:58;;;;;;;6.95;3.22;;;14.10;99.90;;;;;;5016119;28;20022;-81
2022/09/12 00:10:24;;;;;;;6.95;3.47;;;14.10;99.90;;;;;;5019226;28;20406;-82
2022/09/12 00:12:51;;;;;;;5.78;3.03;;;14.00;99.90;;;;;;5018747;28;20021;-81
2022/09/12 00:15:17;;;;;;;5.97;3.28;;;14.00;99.90;;;;;;5019570;28;20025;-82
2022/09/12 00:17:42;;;;;;;6.80;3.45;;;14.00;99.90;;;;;;5020027;28;20366;-82
2022/09/12 00:20:10;;;;;;;6.60;3.00;;;14.00;99.90;;;;;;5020092;28;20022;-82
2022/09/12 00:22:36;;;;;;;5.60;2.65;;;13.90;99.90;;;;;;5003180;28;20056;-82
2022/09/12 00:25:02;;;;;;;5.82;3.00;;;13.90;99.90;;;;;;5021467;28;20553;-82
2022/09/12 00:27:28;;;;;;;4.95;2.47;;;13.90;99.90;;;;;;5002688;28;20017;-82
2022/09/12 00:29:54;;;;;;;5.53;3.00;;;13.90;99.90;;;;;;4999806;28;20105;-81
2022/09/12 00:32:20;;;;;;;5.45;2.97;;;13.90;99.90;;;;;;5017099;28;20049;-82
2022/09/12 00:34:46;;;;;;;4.78;2.83;;;13.80;99.90;;;;;;5020004;28;20026;-82
2022/09/12 00:37:12;;;;;;;6.18;2.95;;;13.80;99.90;;;;;;5018534;28;20057;-83
2022/09/12 00:39:38;;;;;;;6.65;3.13;;;13.80;99.90;;;;;;4995476;28;20038;-82
2022/09/12 00:42:04;;;;;;;5.63;2.72;;;13.70;99.90;;;;;;5015813;28;20025;-82
2022/09/12 00:44:29;;;;;;;6.63;3.20;;;13.80;99.90;;;;;;4997107;28;20036;-82
2022/09/12 00:47:03;;;;;;;6.85;3.28;;;13.80;99.90;;;;;;5014923;28;20030;-82
2022/09/12 00:49:39;;;;;;;6.38;3.70;;;13.80;99.90;;;;;;5015270;28;20402;-83
2022/09/12 00:52:09;;;;;;;5.32;3.10;;;13.70;99.90;;;;;;5014615;28;20029;-82
2022/09/12 00:54:41;;;;;;;6.53;3.25;;;13.70;99.90;;;;;;5007772;28;20038;-82
2022/09/12 00:57:09;;;;;;;;;;;13.70;99.90;;;;;;5013471;28;20041;-82
2022/09/12 00:59:45;;;;;;;5.43;2.85;;;13.80;99.90;;;;;;5018186;28;19917;-82
2022/09/12 01:02:11;;;;;;;6.47;3.05;;;13.70;99.90;;;;;;5016231;28;20041;-82
2022/09/12 01:04:39;;;;;;;6.93;3.30;;;13.70;99.90;;;;;;5020060;28;20037;-82
2022/09/12 01:07:06;;;;;;;6.68;3.35;;;13.70;99.90;;;;;;5014539;28;20026;-82
2022/09/12 01:09:32;;;;;;;6.32;3.42;;;13.60;99.90;;;;;;5016398;28;20025;-82
2022/09/12 01:12:00;;;;;;;7.95;3.55;;;13.60;99.90;;;;;;5013763;28;20022;-82
2022/09/12 01:14:25;;;;;;;7.97;3.55;;;13.60;99.90;;;;;;4999107;28;20018;-82
2022/09/12 01:16:51;;;;;;;7.60;3.50;;;13.60;99.90;;;;;;5020596;28;20371;-82
2022/09/12 01:19:57;;;;;;;6.25;2.90;;;13.50;99.90;;;;;;5000395;28;20070;-81
2022/09/12 01:22:49;;;;;;;7.78;4.05;;;13.50;99.90;;;;;;5006293;28;20673;-82
2022/09/12 01:25:46;;;;;;;6.45;3.28;;;13.50;99.90;;;;;;5017111;28;20033;-83
2022/09/12 01:28:44;;;;;;;5.95;3.28;;;13.40;99.90;;;;;;5015058;28;20030;-82
2022/09/12 01:31:20;;;;;;;6.35;3.00;;;13.50;99.90;;;;;;5005924;28;20037;-82
2022/09/12 01:34:18;;;;;;;6.60;3.25;;;13.60;99.90;;;;;;5020633;28;20486;-82
2022/09/12 01:36:58;;;;;;;5.97;3.17;;;13.50;99.90;;;;;;5003248;28;20740;-82
2022/09/12 01:39:39;;;;;;;5.95;3.25;;;13.50;99.90;;;;;;5023145;28;20044;-82
2022/09/12 01:42:25;;;;;;;7.70;3.72;;;13.70;99.90;;;;;;5001402;28;20034;-83
2022/09/12 01:45:19;;;;;;;7.30;3.50;;;13.50;99.90;;;;;;5019438;28;20037;-82
2022/09/12 01:47:50;;;;;;;6.10;3.40;;;13.40;99.90;;;;;;5017297;28;20030;-82
2022/09/12 01:50:26;;;;;;;6.07;3.60;;;13.30;99.90;;;;;;5019013;28;20046;-81
2022/09/12 01:53:02;;;;;;;6.32;2.92;;;13.30;99.90;;;;;;4999905;28;20018;-82
2022/09/12 01:55:35;;;;;;;5.50;3.10;;;14.30;99.90;;;;;;5001711;28;20030;-82
2022/09/12 01:58:11;;;;;;;6.75;3.17;;;13.40;99.90;;;;;;5000246;28;20018;-82
2022/09/12 02:00:46;;;;;;;6.80;3.22;;;13.40;99.90;;;;;;4996279;28;20026;-81
2022/09/12 02:03:21;;;;;;;8.60;3.53;;;13.90;99.90;;;;;;5013966;28;20022;-82
2022/09/12 02:05:53;;;;;;;7.72;3.85;;;13.40;99.90;;;;;;5027004;28;20045;-82
2022/09/12 02:08:24;;;;;;;6.80;3.38;;;13.50;99.90;;;;;;5019024;28;20018;-82
2022/09/12 02:10:54;;;;;;;6.13;2.85;;;13.20;99.90;;;;;;5018014;28;20021;-82
2022/09/12 02:13:36;;;;;;;6.65;3.50;;;13.80;99.90;;;;;;5021113;28;20018;-82
2022/09/12 02:16:17;;;;;;;6.90;2.90;;;13.10;99.90;;;;;;5016092;28;20049;-82
2022/09/12 02:18:51;;;;;;;8.38;3.45;;;13.10;99.90;;;;;;5019926;28;20025;-82
2022/09/12 02:21:19;;;;;;;7.05;3.60;;;13.20;99.90;;;;;;5015809;28;20042;-82
2022/09/12 02:23:49;;;;;;;6.63;3.08;;;13.10;99.90;;;;;;5001432;28;20022;-82
2022/09/12 02:26:22;;;;;;;9.05;3.55;;;13.10;99.90;;;;;;5020012;28;20040;-83
2022/09/12 02:28:48;;;;;;;6.82;3.40;;;13.40;99.90;;;;;;5001559;28;20041;-82
2022/09/12 02:31:32;;;;;;;7.40;3.22;;;13.10;99.90;;;;;;5001931;28;20072;-82
2022/09/12 02:34:40;;;;;;;6.25;3.30;;;13.10;99.90;;;;;;4995555;28;20018;-82
2022/09/12 02:37:32;;;;;;;6.13;3.20;;;13.10;99.90;;;;;;5001564;28;20029;-82
2022/09/12 02:39:59;;;;;;;5.75;2.78;;;13.10;99.90;;;;;;4995202;28;20578;-82
2022/09/12 02:42:25;;;;;;;5.82;3.10;;;13.00;99.90;;;;;;5001519;28;20018;-82
2022/09/12 02:44:55;;;;;;;6.47;3.38;;;14.50;99.90;;;;;;5000262;28;20080;-82
2022/09/12 02:47:36;;;;;;;5.88;3.08;;;13.20;99.90;;;;;;5019162;28;20026;-82
2022/09/12 02:50:04;;;;;;;5.72;3.05;;;13.10;99.90;;;;;;5010112;28;20022;-83
2022/09/12 02:52:30;;;;;;;7.22;3.75;;;13.10;99.90;;;;;;4997168;28;20017;-82
2022/09/12 02:54:57;;;;;;;6.68;3.28;;;13.10;99.90;;;;;;5002513;28;20033;-82
2022/09/12 02:57:23;;;;;;;6.43;3.17;;;13.30;99.90;;;;;;5012041;28;20104;-82
2022/09/12 02:59:54;;;;;;;7.05;3.17;;;13.30;99.90;;;;;;5015529;28;20049;-83
2022/09/12 03:02:30;;;;;;;7.38;3.90;;;13.00;99.90;;;;;;5000914;28;20084;-82
2022/09/12 03:04:58;;;;;;;7.00;3.40;;;13.10;99.90;;;;;;5002541;28;20034;-83
2022/09/12 03:07:57;;;;;;;6.85;3.72;;;13.00;99.90;;;;;;5001774;28;20057;-82
2022/09/12 03:10:39;;;;;;;7.45;3.55;;;13.00;99.90;;;;;;4998778;28;20122;-82
2022/09/12 03:13:14;;;;;;;;;;;12.90;99.90;;;;;;5020716;28;20122;-82
2022/09/12 03:15:57;;;;;;;6.88;3.25;;;13.50;99.90;;;;;;5019410;28;20378;-82
2022/09/12 03:18:42;;;;;;;7.65;3.90;;;12.90;99.90;;;;;;4998190;28;20123;-83
2022/09/12 03:21:16;;;;;;;8.63;3.20;;;12.90;99.90;;;;;;4994422;28;20025;-82
2022/09/12 03:23:49;;;;;;;7.15;3.63;;;12.90;99.90;;;;;;5019070;28;20529;-82
2022/09/12 03:26:27;;;;;;;7.68;3.42;;;12.80;99.90;;;;;;5001351;28;20087;-81
2022/09/12 03:28:54;;;;;;;6.13;3.22;;;12.80;99.90;;;;;;5022544;28;20022;-83
2022/09/12 03:31:20;;;;;;;7.60;3.50;;;13.20;99.90;;;;;;5018031;28;20021;-82
2022/09/12 03:33:45;;;;;;;6.82;3.50;;;12.80;99.90;;;;;;5020944;28;20026;-82
2022/09/12 03:36:25;;;;;;;10.50;3.95;;;13.30;99.90;;;;;;4999201;28;20033;-83
2022/09/12 03:38:51;;;;;;;6.95;3.75;;;12.80;99.90;;;;;;4994601;28;20026;-82
2022/09/12 03:41:17;;;;;;;7.40;3.55;;;13.40;99.90;;;;;;4997776;28;20022;-82
2022/09/12 03:43:43;;;;;;;8.88;4.20;;;12.70;99.90;;;;;;5019179;28;20098;-82
2022/09/12 03:46:08;;;;;;;8.35;4.10;;;13.10;99.90;;;;;;5005514;28;20506;-82
2022/09/12 03:48:34;;;;;;;7.05;3.50;;;12.70;99.90;;;;;;5001056;28;20025;-82
2022/09/12 03:51:01;;;;;;;6.97;3.75;;;13.90;99.90;;;;;;5018313;28;20033;-82
2022/09/12 03:53:27;;;;;;;7.63;3.80;;;12.70;99.90;;;;;;5024891;28;20164;-82
2022/09/12 03:55:53;;;;;;;7.82;3.63;;;12.80;99.90;;;;;;5024110;28;20038;-82
2022/09/12 03:58:19;;;;;;;8.88;3.92;;;12.90;99.90;;;;;;5006237;28;20030;-82
2022/09/12 04:00:44;;;;;;;7.88;3.78;;;12.70;99.90;;;;;;5001332;28;20037;-82
2022/09/12 04:03:10;;;;;;;9.35;4.55;;;13.30;99.90;;;;;;5006399;28;20030;-82
2022/09/12 04:05:35;;;;;;;7.15;3.72;;;13.00;99.90;;;;;;5011701;28;20034;-83
2022/09/12 04:08:01;;;;;;;8.23;3.67;;;12.60;99.90;;;;;;5011726;28;20025;-82
2022/09/12 04:10:27;;;;;;;8.25;3.38;;;12.60;99.90;;;;;;5011431;28;20022;-82
2022/09/12 04:12:52;;;;;;;7.97;4.28;;;12.80;99.90;;;;;;5007403;28;20018;-83
2022/09/12 04:15:18;;;;;;;7.30;3.95;;;12.50;99.90;;;;;;5012321;28;20065;-83
2022/09/12 04:17:43;;;;;;;7.22;4.07;;;12.50;99.90;;;;;;5004676;28;20029;-84
2022/09/12 04:20:09;;;;;;;7.32;3.78;;;12.70;99.90;;;;;;5006117;28;20165;-82
2022/09/12 04:22:35;;;;;;;8.00;4.20;;;12.40;99.90;;;;;;5021366;28;20025;-82
2022/09/12 04:25:01;;;;;;;7.18;3.55;;;12.40;99.90;;;;;;5022405;28;20026;-82
2022/09/12 04:27:27;;;;;;;7.65;4.05;;;12.70;99.90;;;;;;5004872;28;20032;-82
2022/09/12 04:29:54;;;;;;;8.48;3.83;;;12.60;99.90;;;;;;5021263;28;20025;-83
2022/09/12 04:32:21;;;;;;;6.53;3.47;;;12.40;99.90;;;;;;5002723;28;20566;-82
2022/09/12 04:34:47;;;;;;;7.97;3.53;;;12.20;99.90;;;;;;5020218;28;20475;-82
2022/09/12 04:37:12;;;;;;;8.75;4.13;;;12.20;99.90;;;;;;5001593;28;20030;-82
2022/09/12 04:39:38;;;;;;;9.07;3.78;;;13.60;99.90;;;;;;5019681;28;20034;-82
2022/09/12 04:42:04;;;;;;;6.30;3.05;;;12.30;99.90;;;;;;5022201;28;20038;-82
2022/09/12 04:44:30;;;;;;;7.82;3.28;;;12.20;99.90;;;;;;5002264;28;20022;-82
2022/09/12 04:46:56;;;;;;;7.43;3.78;;;12.40;99.90;;;;;;5018716;28;20041;-82
2022/09/12 04:49:22;;;;;;;6.72;4.10;;;12.30;99.90;;;;;;5020099;28;20049;-82
2022/09/12 04:51:48;;;;;;;8.32;3.40;;;12.20;99.90;;;;;;5020989;28;20037;-82
2022/09/12 04:54:16;;;;;;;7.07;3.17;;;12.20;99.90;;;;;;5000266;28;20033;-82
2022/09/12 04:56:44;;;;;;;7.57;3.08;;;12.10;99.90;;;;;;5000402;28;20030;-82
2022/09/12 04:59:11;;;;;;;6.70;3.20;;;12.20;99.90;;;;;;4998019;28;20835;-82
2022/09/12 05:01:38;;;;;;;6.50;3.00;;;12.20;99.90;;;;;;5001404;28;20046;-82
2022/09/12 05:04:03;;;;;;;6.90;2.90;;;12.20;99.90;;;;;;5021710;23;20161;-86
2022/09/12 05:06:34;;;;;;;8.35;4.10;;;12.70;99.90;;;;;;5046934;28;20036;-86
2022/09/12 05:09:01;;;;;;;7.65;3.20;;;11.10;99.90;;;;;;5042019;28;20029;-86
2022/09/12 05:11:29;;;;;;;9.45;4.20;;;12.70;99.90;;;;;;5047377;28;20029;-86
2022/09/12 05:13:55;;;;;;;9.70;4.57;;;12.10;99.90;;;;;;5061663;28;20036;-86
2022/09/12 05:16:22;;;;;;;7.97;3.28;;;11.20;99.90;;;;;;5052828;28;20032;-85
2022/09/12 05:18:49;;;;;;;8.25;3.70;;;12.20;99.90;;;;;;5057187;28;20040;-87
2022/09/12 05:21:18;;;;;;;8.85;4.35;;;12.20;99.90;;;;;;5076238;28;20033;-86
2022/09/12 05:23:44;;;;;;;9.07;4.28;;;12.60;99.90;;;;;;5062156;28;20033;-86
2022/09/12 05:26:13;;;;;;;9.20;4.05;;;12.20;99.90;;;;;;5051499;28;20033;-85
2022/09/12 05:28:39;;;;;;;9.07;4.50;;;11.90;99.90;;;;;;5049475;28;20032;-86
2022/09/12 05:31:14;;;;;;;8.65;4.22;;;12.00;99.90;;;;;;5049236;28;20021;-86
2022/09/12 05:33:41;;;;;;;10.63;4.90;;;12.30;99.90;;;;;;5043733;28;20057;-86
2022/09/12 05:36:11;;;;;;;9.27;4.07;;;13.30;99.90;;;;;;5043799;28;20108;-86
2022/09/12 05:38:37;;;;;;;9.68;4.80;;;12.80;99.90;;;;;;5044807;28;20485;-86
2022/09/12 05:41:12;;;;;;;8.02;4.07;;;13.20;99.90;;;;;;5047046;28;20021;-87
2022/09/12 05:43:40;;;;;;;8.52;4.18;;;12.70;99.90;;;;;;5043229;28;20661;-86
2022/09/12 05:46:08;;;;;;;8.48;4.35;;;12.80;99.90;;;;;;5048075;28;20033;-87
2022/09/12 05:48:35;;;;;;;10.35;4.75;;;12.80;99.90;;;;;;5046288;28;20021;-86
2022/09/12 05:51:05;;;;;;;7.28;4.30;;;12.60;99.90;;;;;;5048920;28;20021;-87
2022/09/12 05:53:31;;;;;;;8.60;4.53;;;12.40;99.90;;;;;;5049533;28;20021;-87
2022/09/12 05:56:11;;;;;;;6.68;3.67;;;12.40;99.90;;;;;;5049969;28;20036;-87
2022/09/12 05:58:40;;;;;;;9.90;3.92;;;12.50;99.90;;;;;;5041395;28;20401;-86
2022/09/12 06:01:09;;;;;;;8.15;3.72;;;12.60;99.90;;;;;;5050360;28;20037;-87
2022/09/12 06:03:39;;;;;;;8.55;4.05;;;12.60;99.90;;;;;;5040884;28;20037;-88
2022/09/12 06:06:06;;;;;;;8.23;4.22;;;12.80;99.90;;;;;;5039375;28;20379;-87
2022/09/12 06:08:33;;;;;;;8.13;4.22;;;12.80;99.90;;;;;;5046409;28;20509;-88
2022/09/12 06:11:03;;;;;;;7.53;3.63;;;13.20;99.90;;;;;;5043609;28;20070;-87
2022/09/12 06:13:35;;;;;;;8.27;4.22;;;13.00;99.90;;;;;;5046926;28;20017;-87
2022/09/12 06:16:04;;;;;;;10.05;4.72;;;13.10;99.90;;;;;;5039102;28;20527;-88
2022/09/12 06:18:30;;;;;;;9.80;4.70;;;12.20;99.90;;;;;;5046164;28;21609;-88
2022/09/12 06:20:55;;;;;;;9.38;4.63;;;12.60;99.90;;;;;;5042509;28;20151;-88
2022/09/12 06:23:21;;;;;;;11.18;5.05;;;12.70;99.90;;;;;;5042496;28;20104;-88
2022/09/12 06:25:50;;;;;;;9.35;4.22;;;12.70;99.90;;;;;;5032040;28;20057;-86
2022/09/12 06:28:16;;;;;;;9.63;5.15;;;11.60;99.90;;;;;;5045766;28;20059;-88
2022/09/12 06:30:42;;;;;;;12.20;5.30;;;11.80;99.90;;;;;;5047530;28;20048;-88
2022/09/12 06:33:08;;;;;;;10.98;5.35;;;13.10;99.90;;;;;;5047818;28;20021;-87
2022/09/12 06:35:37;;;;;;;11.75;4.75;;;13.80;99.90;;;;;;5049334;28;20108;-87
2022/09/12 06:38:04;;;;;;;9.80;4.70;;;13.20;99.90;;;;;;5042389;28;20029;-87
2022/09/12 06:40:30;;;;;;;9.57;4.95;;;13.50;99.90;;;;;;5043776;28;20032;-87
2022/09/12 06:42:56;;;;;;;10.88;5.00;;;13.60;99.90;;;;;;5042529;28;20036;-88
2022/09/12 06:45:21;;;;;;;10.20;4.47;;;13.70;99.90;;;;;;5049620;28;20096;-87
2022/09/12 06:47:47;;;;;;;10.82;5.40;;;13.80;99.90;;;;;;5048070;28;20024;-87
2022/09/12 06:50:13;;;;;;;8.48;4.60;;;14.00;99.90;;;;;;5047277;28;20021;-87
2022/09/12 06:52:38;;;;;;;10.27;5.07;;;14.90;99.90;;;;;;5048005;28;20100;-87
2022/09/12 06:55:04;;;;;;;10.52;4.85;;;14.70;99.90;;;;;;5047584;28;20017;-87
2022/09/12 06:57:31;;;;;;;8.95;4.90;;;14.00;99.90;;;;;;5043354;28;20147;-88
2022/09/12 06:59:57;;;;;;;9.80;4.47;;;14.10;99.90;;;;;;5047585;28;20028;-87
2022/09/12 07:02:24;;;;;;;9.13;4.80;;;13.50;99.90;;;;;;5050280;28;20032;-86
2022/09/12 07:04:50;;;;;;;8.88;4.05;;;14.50;99.90;;;;;;5048631;28;20033;-87
2022/09/12 07:07:16;;;;;;;7.53;3.90;;;13.20;99.90;;;;;;5049261;28;20717;-86
2022/09/12 07:09:42;;;;;;;10.48;4.47;;;14.30;99.90;;;;;;5040602;28;20116;-87
2022/09/12 07:12:08;;;;;;;7.93;4.35;;;14.60;99.90;;;;;;5047657;28;20019;-87
2022/09/12 07:14:33;;;;;;;8.15;3.78;;;14.40;99.90;;;;;;5049315;28;20021;-86
2022/09/12 07:16:59;;;;;;;8.73;3.60;;;14.40;99.90;;;;;;5042741;28;20104;-87
2022/09/12 07:19:24;;;;;;;7.68;4.18;;;14.50;99.90;;;;;;5046920;28;20075;-86
2022/09/12 07:21:50;;;;;;;8.25;4.22;;;14.70;99.90;;;;;;5047710;28;20033;-86
2022/09/12 07:24:16;;;;;;;7.97;3.92;;;15.70;99.90;;;;;;5035501;28;20032;-87
2022/09/12 07:26:42;;;;;;;6.32;3.35;;;15.10;99.90;;;;;;5049819;28;20106;-86
2022/09/12 07:29:15;;;;;;;6.85;3.53;;;15.10;99.90;;;;;;5048135;28;20045;-87
2022/09/12 07:31:40;;;;;;;5.68;3.00;;;15.40;99.90;;;;;;5053244;28;20791;-87
2022/09/12 07:34:06;;;;;;;5.65;3.08;;;15.60;99.90;;;;;;5052727;28;20025;-87
2022/09/12 07:36:32;;;;;;;5.47;3.17;;;15.80;99.90;;;;;;5048185;28;20112;-87
2022/09/12 07:38:58;;;;;;;6.07;2.92;;;16.30;99.90;;;;;;5051683;28;20028;-87
2022/09/12 07:41:25;;;;;;;6.20;3.17;;;15.70;99.90;;;;;;5050051;28;20048;-87
2022/09/12 07:43:53;;;;;;;6.90;3.17;;;16.50;99.90;;;;;;5047772;28;20029;-87
2022/09/12 07:46:21;;;;;;;5.60;3.03;;;15.70;99.90;;;;;;5047994;28;20033;-87
2022/09/12 07:49:02;;;;;;;5.25;2.95;;;16.00;99.90;;;;;;5049350;28;20025;-85
2022/09/12 07:51:29;;;;;;;7.90;3.50;;;16.40;99.90;;;;;;5050963;28;20543;-87
2022/09/12 07:53:55;;;;;;;6.78;3.45;;;15.90;99.90;;;;;;5044846;28;20291;-86
2022/09/12 07:56:21;;;;;;;5.95;3.30;;;15.50;99.90;;;;;;5044580;28;20500;-86
2022/09/12 07:58:47;;;;;;;5.43;2.45;;;16.80;99.90;;;;;;5051109;28;20036;-83
2022/09/12 08:01:15;;;;;;;5.78;2.95;;;16.30;99.90;;;;;;5047561;28;20025;-85
2022/09/12 08:03:45;;;;;;;6.07;2.80;;;16.50;99.90;;;;;;5051853;28;20040;-84
2022/09/12 08:06:20;;;;;;;4.72;2.60;;;16.60;99.90;;;;;;5051018;28;20029;-83
2022/09/12 08:08:47;;;;;;;4.63;2.50;;;16.80;99.90;;;;;;5050950;28;20082;-83
2022/09/12 08:11:15;;;;;;;7.30;2.65;;;17.00;99.90;;;;;;5049940;28;20025;-83
2022/09/12 08:13:44;;;;;;;7.18;2.83;;;17.30;99.90;;;;;;5044194;28;20022;-83
2022/09/12 08:16:18;;;;;;;4.47;2.05;;;17.30;99.90;;;;;;5049095;28;20028;-83
2022/09/12 08:18:46;;;;;;;5.75;2.17;;;17.40;99.90;;;;;;5050483;28;20037;-84
2022/09/12 08:21:14;;;;;;;3.30;1.52;;;17.60;99.90;;;;;;5049581;28;20548;-84
2022/09/12 08:23:41;;;;;;;3.45;1.30;;;17.80;99.90;;;;;;5044056;28;20082;-84
2022/09/12 08:26:08;;;;;;;3.53;1.80;;;17.90;99.90;;;;;;5046541;28;20078;-83
2022/09/12 08:28:35;;;;;;;3.00;1.38;;;18.00;99.90;;;;;;5050320;28;20017;-84
2022/09/12 08:31:08;;;;;;;3.53;1.23;;;18.10;99.90;;;;;;5046426;28;20632;-84
2022/09/12 08:33:33;;;;;;;3.60;1.65;;;17.90;99.90;;;;;;5051554;28;20096;-83
2022/09/12 08:36:07;;;;;;;4.70;1.38;;;17.90;99.90;;;;;;5049907;28;20499;-83
2022/09/12 08:38:39;;;;;;;2.20;0.95;;;17.80;99.90;;;;;;5049794;28;20056;-83
2022/09/12 08:41:27;;;;;;;2.70;1.30;;;17.90;99.90;;;;;;5046366;28;20026;-83
2022/09/12 08:44:22;;;;;;;3.53;1.20;;;17.90;99.90;;;;;;5051430;28;20032;-83
2022/09/12 08:46:56;;;;;;;2.55;1.02;;;18.00;99.90;;;;;;5045035;28;20473;-84
2022/09/12 08:49:32;;;;;;;4.07;1.20;;;18.30;99.90;;;;;;5050264;28;20530;-84
2022/09/12 08:52:05;;;;;;;2.03;0.90;;;18.50;99.90;;;;;;5049761;28;20021;-84
2022/09/12 08:54:31;;;;;;;2.42;0.80;;;18.80;99.90;;;;;;5050115;28;20124;-83
2022/09/12 08:57:05;;;;;;;2.20;1.00;;;18.90;99.90;;;;;;5050027;28;20083;-84
2022/09/12 08:59:43;;;;;;;1.80;0.90;;;18.90;99.90;;;;;;5048482;28;20028;-83
2022/09/12 09:02:33;;;;;;;1.80;0.80;;;18.90;99.90;;;;;;5050151;28;20075;-83
2022/09/12 09:05:24;;;;;;;2.40;0.70;;;19.10;99.90;;;;;;5049584;28;20025;-83
2022/09/12 09:08:07;;;;;;;1.92;1.00;;;19.10;99.90;;;;;;5047181;28;20530;-83
2022/09/12 09:10:58;;;;;;;1.60;0.80;;;19.40;99.90;;;;;;5051057;28;20024;-84
2022/09/12 09:16:34;;;;;;;2.78;1.20;;;19.30;99.90;;;;;;5050277;28;20032;-83
2022/09/12 09:19:17;;;;;;;2.92;1.20;;;19.40;99.90;;;;;;5050882;28;20078;-84
2022/09/12 09:22:00;;;;;;;2.33;0.85;;;19.40;99.90;;;;;;5048768;28;20032;-83
2022/09/12 09:24:52;;;;;;;2.00;1.08;;;19.50;99.90;;;;;;5047935;28;20436;-84
2022/09/12 09:27:41;;;;;;;1.30;0.70;;;19.80;99.90;;;;;;5048027;28;20056;-84
2022/09/12 09:30:20;;;;;;;1.95;1.05;;;19.70;99.90;;;;;;5048618;28;20029;-84
2022/09/12 09:32:54;;;;;;;1.77;0.80;;;19.80;99.90;;;;;;5048979;28;20028;-84
2022/09/12 09:35:42;;;;;;;1.98;0.63;;;19.90;99.90;;;;;;5048479;28;20021;-85
2022/09/12 09:38:33;;;;;;;1.38;0.70;;;20.10;99.90;;;;;;5048056;28;20025;-84
2022/09/12 09:41:01;;;;;;;1.30;0.70;;;20.40;99.90;;;;;;5042477;28;20033;-84
2022/09/12 09:43:27;;;;;;;2.72;0.75;;;20.60;99.90;;;;;;5043310;28;20275;-84
2022/09/12 09:45:55;;;;;;;2.40;0.73;;;20.80;99.90;;;;;;5046190;28;20370;-84
2022/09/12 09:48:20;;;;;;;1.10;0.55;;;20.80;99.90;;;;;;5048823;28;20075;-84
2022/09/12 09:50:48;;;;;;;1.35;0.80;;;20.80;99.90;;;;;;5050898;28;20028;-84
2022/09/12 09:53:35;;;;;;;2.25;0.80;;;20.80;99.90;;;;;;5044655;28;20025;-84
2022/09/12 09:56:21;;;;;;;1.95;0.70;;;21.10;99.90;;;;;;5049047;28;20112;-84
2022/09/12 09:58:46;;;;;;;2.00;1.00;;;21.20;99.90;;;;;;5050655;28;20683;-84
2022/09/12 10:01:16;;;;;;;0.93;0.60;;;21.50;99.90;;;;;;5049411;28;20028;-84
2022/09/12 10:03:53;;;;;;;1.50;0.70;;;21.60;99.90;;;;;;5042439;28;20036;-84
2022/09/12 10:06:19;;;;;;;1.17;0.50;;;21.70;99.90;;;;;;5050579;28;20021;-83
2022/09/12 10:08:46;;;;;;;1.88;0.70;;;21.80;99.90;;;;;;5042184;28;20021;-85
2022/09/12 10:11:14;;;;;;;0.85;0.50;;;22.00;99.90;;;;;;5044725;28;20021;-82
2022/09/12 10:14:00;;;;;;;1.33;0.60;;;22.00;99.90;;;;;;5048377;28;20017;-85
2022/09/12 10:16:29;;;;;;;2.75;0.60;;;22.00;99.90;;;;;;5057163;28;20020;-83
2022/09/12 10:18:57;;;;;;;0.98;0.45;;;22.00;99.90;;;;;;5066978;28;20537;-84
2022/09/12 10:21:46;;;;;;;1.85;0.50;;;21.90;99.90;;;;;;5066105;28;20029;-84
2022/09/12 10:24:25;;;;;;;1.42;0.63;;;22.20;99.90;;;;;;5062346;28;20049;-84
2022/09/12 10:27:12;;;;;;;1.77;0.50;;;22.10;99.90;;;;;;5049634;28;20028;-85
2022/09/12 10:29:47;;;;;;;1.27;0.60;;;22.30;99.90;;;;;;5045490;28;20077;-85
2022/09/12 10:32:22;;;;;;;1.48;0.50;;;22.20;99.90;;;;;;5042901;28;20565;-84
2022/09/12 10:34:51;;;;;;;0.98;0.40;;;22.50;99.90;;;;;;5065325;28;20029;-85
2022/09/12 10:37:18;;;;;;;3.38;0.77;;;22.50;99.90;;;;;;5049154;28;20048;-84
2022/09/12 10:39:52;;;;;;;1.42;0.55;;;22.70;99.90;;;;;;5040841;28;20139;-84
2022/09/12 10:42:40;;;;;;;1.08;0.50;;;22.90;99.90;;;;;;5043837;28;20028;-85
2022/09/12 10:45:30;;;;;;;1.10;0.40;;;23.00;99.90;;;;;;5047318;28;20020;-85
2022/09/12 10:47:59;;;;;;;1.95;0.73;;;23.20;99.90;;;;;;5064963;28;20025;-85
2022/09/12 10:50:37;;;;;;;0.98;0.43;;;23.30;99.90;;;;;;5047705;28;20071;-83
2022/09/12 10:53:12;;;;;;;1.70;0.60;;;23.20;99.90;;;;;;5040558;28;20556;-85
2022/09/12 10:55:41;;;;;;;0.73;0.50;;;23.20;99.90;;;;;;5048128;28;20025;-85
2022/09/12 10:58:28;;;;;;;1.83;0.47;;;23.50;99.80;;;;;;5041557;28;20033;-84
2022/09/12 11:01:05;;;;;;;0.68;0.35;;;23.70;99.80;;;;;;5039437;28;20104;-85
2022/09/12 11:03:50;;;;;;;1.17;0.40;;;23.70;99.40;;;;;;5050651;28;20021;-85
2022/09/12 11:06:29;;;;;;;0.82;0.32;;;23.70;98.10;;;;;;5053157;23;20429;-83
2022/09/12 11:09:00;;;;;;;0.90;0.40;;;24.00;98.60;;;;;;4992081;28;20037;-84
2022/09/12 11:11:35;;;;;;;0.70;0.40;;;23.30;98.40;;;;;;5008203;28;20076;-82
2022/09/12 11:14:34;;;;;;;0.93;0.20;;;23.20;96.80;;;;;;4991322;28;20033;-82
2022/09/12 11:17:12;;;;;;;0.73;0.32;;;23.20;95.10;;;;;;4989702;28;20031;-82
2022/09/12 11:20:05;;;;;;;0.70;0.40;;;23.40;97.00;;;;;;4988963;28;20502;-83
2022/09/12 11:23:03;;;;;;;1.63;0.30;;;23.70;97.30;;;;;;4971650;28;20034;-83
2022/09/12 11:25:45;;;;;;;0.98;0.40;;;23.50;95.00;;;;;;4988499;28;20502;-83
2022/09/12 11:28:11;;;;;;;1.17;0.40;;;23.20;95.20;;;;;;4982975;28;20030;-82
2022/09/12 11:31:01;;;;;;;0.98;0.40;;;23.30;96.90;;;;;;4984322;28;20058;-83
2022/09/12 11:33:43;;;;;;;0.65;0.20;;;23.50;96.30;;;;;;4987854;28;20035;-83
2022/09/12 11:36:21;;;;;;;0.75;0.30;;;23.90;97.00;;;;;;4986491;28;20037;-83
2022/09/12 11:39:16;;;;;;;0.70;0.40;;;23.70;94.90;;;;;;4968734;28;20398;-83
2022/09/12 11:41:56;;;;;;;1.13;0.40;;;24.00;95.50;;;;;;4968464;28;20042;-83
2022/09/12 11:44:27;;;;;;;0.90;0.30;;;24.00;95.70;;;;;;4970847;28;20114;-83
2022/09/12 11:46:53;;;;;;;;;;;24.20;94.90;;;;;;4969159;28;20030;-82
2022/09/12 11:49:32;;;;;;;0.60;0.30;;;24.50;94.80;;;;;;4971946;28;19968;-82
2022/09/12 11:52:22;;;;;;;0.80;0.30;;;24.60;93.50;;;;;;4972162;28;20014;-83
2022/09/12 11:55:09;;;;;;;0.60;0.30;;;24.90;93.20;;;;;;4983962;28;20031;-83
2022/09/12 11:57:44;;;;;;;1.10;0.32;;;24.90;93.10;;;;;;4973144;28;20149;-83
2022/09/12 12:00:17;;;;;;;1.33;0.30;;;25.20;95.00;;;;;;4988848;28;20038;-83
2022/09/12 12:03:12;;;;;;;0.20;0.20;;;25.40;95.40;;;;;;4971833;28;20483;-84
2022/09/12 12:05:58;;;;;;;1.23;0.30;;;25.80;97.80;;;;;;4987295;28;20048;-83
2022/09/12 12:08:26;;;;;;;0.60;0.22;;;25.50;96.60;;;;;;4973059;28;20027;-83
2022/09/12 12:10:58;;;;;;;0.98;0.40;;;25.30;97.00;;;;;;4971465;28;20042;-84
2022/09/12 12:13:39;;;;;;;0.85;0.30;;;25.40;96.10;;;;;;4992642;28;20026;-83
2022/09/12 12:16:18;;;;;;;1.00;0.30;;;25.50;96.20;;;;;;4990591;28;20038;-83
2022/09/12 12:18:44;;;;;;;0.32;0.13;;;25.80;95.20;;;;;;4967766;28;20817;-82
2022/09/12 12:21:43;;;;;;;0.50;0.20;;;25.80;95.10;;;;;;4993996;28;20037;-82
2022/09/12 12:24:09;;;;;;;0.60;0.30;;;25.90;94.30;;;;;;4993132;28;20420;-82
2022/09/12 12:26:44;;;;;;;0.40;0.20;;;26.00;94.90;;;;;;4997195;28;20046;-82
2022/09/12 12:29:12;;;;;;;0.82;0.22;;;26.50;94.80;;;;;;4979710;28;20021;-82
2022/09/12 12:32:02;;;;;;;1.00;0.38;;;26.70;96.30;;;;;;4993072;28;20030;-82
2022/09/12 12:34:32;;;;;;;0.45;0.25;;;26.70;95.30;;;;;;4996376;28;20097;-81
2022/09/12 12:37:19;;;;;;;0.57;0.30;;;26.30;95.50;;;;;;4979519;28;20030;-81
2022/09/12 12:39:48;;;;;;;0.50;0.28;;;26.50;95.10;;;;;;4990177;28;20030;-82
2022/09/12 12:42:32;;;;;;;0.70;0.40;;;26.60;95.50;;;;;;4989909;28;20037;-81
2022/09/12 12:45:07;;;;;;;0.50;0.17;;;26.90;95.50;;;;;;4978677;28;20610;-83
2022/09/12 12:47:41;;;;;;;0.40;0.20;;;27.20;94.60;;;;;;4975486;28;20142;-82
2022/09/12 12:50:18;;;;;;;0.50;0.30;;;27.10;94.90;;;;;;4995898;28;20018;-82
2022/09/12 12:52:51;;;;;;;2.08;0.30;;;27.20;93.90;;;;;;4994023;28;20030;-82
2022/09/12 12:55:49;;;;;;;0.30;0.20;;;27.40;93.90;;;;;;4995760;28;20054;-82
2022/09/12 12:58:41;;;;;;;0.30;0.20;;;27.60;92.20;;;;;;4985113;28;20039;-82
2022/09/12 13:01:18;;;;;;;0.30;0.17;;;27.40;88.00;;;;;;4993618;28;20033;-81
2022/09/12 13:04:03;;;;;;;0.57;0.20;;;27.40;88.10;;;;;;4983151;28;20034;-82
2022/09/12 13:06:41;;;;;;;0.40;0.20;;;27.80;86.10;;;;;;4997517;28;20034;-82
2022/09/12 13:09:27;;;;;;;0.95;0.30;;;28.30;90.90;;;;;;4981860;28;20031;-82
2022/09/12 13:12:09;;;;;;;0.20;0.10;;;28.30;91.00;;;;;;4994314;28;20081;-82
2022/09/12 13:14:48;;;;;;;0.30;0.17;;;28.30;91.90;;;;;;4979574;28;20034;-83
2022/09/12 13:17:43;;;;;;;0.22;0.10;;;28.40;93.50;;;;;;4995987;28;20022;-83
2022/09/12 13:20:12;;;;;;;0.30;0.20;;;28.60;93.00;;;;;;4976267;28;20066;-83